sensor_id;sensor_type;location;lat;lon;timestamp;P1;durP1;ratioP1;P2;durP2;ratioP2
44228;SDS011;29904;51.058;5.378;2023-08-30T00:00:11;5.93;;;4.10;;
44228;SDS011;29904;51.058;5.378;2023-08-30T00:02:46;6.50;;;4.28;;
44228;SDS011;29904;51.058;5.378;2023-08-30T00:05:12;7.90;;;4.75;;
44228;SDS011;29904;51.058;5.378;2023-08-30T00:07:38;6.25;;;4.30;;
44228;SDS011;29904;51.058;5.378;2023-08-30T00:10:05;8.38;;;5.05;;
44228;SDS011;29904;51.058;5.378;2023-08-30T00:12:31;7.50;;;4.70;;
44228;SDS011;29904;51.058;5.378;2023-08-30T00:14:57;5.82;;;4.15;;
44228;SDS011;29904;51.058;5.378;2023-08-30T00:17:23;6.85;;;4.43;;
44228;SDS011;29904;51.058;5.378;2023-08-30T00:19:49;5.28;;;4.10;;
44228;SDS011;29904;51.058;5.378;2023-08-30T00:22:15;5.83;;;4.17;;
44228;SDS011;29904;51.058;5.378;2023-08-30T00:24:41;6.90;;;4.17;;
44228;SDS011;29904;51.058;5.378;2023-08-30T00:27:07;6.37;;;4.03;;
44228;SDS011;29904;51.058;5.378;2023-08-30T00:29:33;5.57;;;3.50;;
44228;SDS011;29904;51.058;5.378;2023-08-30T00:31:58;6.90;;;4.10;;
44228;SDS011;29904;51.058;5.378;2023-08-30T00:34:24;6.53;;;4.40;;
44228;SDS011;29904;51.058;5.378;2023-08-30T00:36:52;6.80;;;4.20;;
44228;SDS011;29904;51.058;5.378;2023-08-30T00:39:17;5.03;;;3.90;;
44228;SDS011;29904;51.058;5.378;2023-08-30T00:41:43;6.67;;;3.80;;
44228;SDS011;29904;51.058;5.378;2023-08-30T00:44:09;6.40;;;4.00;;
44228;SDS011;29904;51.058;5.378;2023-08-30T00:46:36;6.20;;;4.13;;
44228;SDS011;29904;51.058;5.378;2023-08-30T00:49:02;7.70;;;4.38;;
44228;SDS011;29904;51.058;5.378;2023-08-30T00:51:29;6.00;;;4.40;;
44228;SDS011;29904;51.058;5.378;2023-08-30T00:53:56;5.95;;;4.05;;
44228;SDS011;29904;51.058;5.378;2023-08-30T00:56:29;6.05;;;4.00;;
44228;SDS011;29904;51.058;5.378;2023-08-30T00:58:58;7.40;;;4.18;;
44228;SDS011;29904;51.058;5.378;2023-08-30T01:01:24;6.50;;;4.30;;
44228;SDS011;29904;51.058;5.378;2023-08-30T01:03:51;6.17;;;3.87;;
44228;SDS011;29904;51.058;5.378;2023-08-30T01:06:17;6.40;;;4.33;;
44228;SDS011;29904;51.058;5.378;2023-08-30T01:08:43;5.73;;;4.20;;
44228;SDS011;29904;51.058;5.378;2023-08-30T01:13:56;6.57;;;4.60;;
44228;SDS011;29904;51.058;5.378;2023-08-30T01:16:28;6.28;;;4.90;;
44228;SDS011;29904;51.058;5.378;2023-08-30T01:18:56;8.73;;;5.60;;
44228;SDS011;29904;51.058;5.378;2023-08-30T01:21:34;7.68;;;5.40;;
44228;SDS011;29904;51.058;5.378;2023-08-30T01:27:29;8.90;;;6.63;;
44228;SDS011;29904;51.058;5.378;2023-08-30T01:30:00;8.25;;;6.03;;
44228;SDS011;29904;51.058;5.378;2023-08-30T01:32:29;9.75;;;6.20;;
44228;SDS011;29904;51.058;5.378;2023-08-30T01:34:56;9.20;;;6.22;;
44228;SDS011;29904;51.058;5.378;2023-08-30T01:37:23;8.57;;;5.95;;
44228;SDS011;29904;51.058;5.378;2023-08-30T01:39:50;8.20;;;6.13;;
44228;SDS011;29904;51.058;5.378;2023-08-30T01:42:17;8.13;;;5.88;;
44228;SDS011;29904;51.058;5.378;2023-08-30T01:44:47;9.73;;;6.43;;
44228;SDS011;29904;51.058;5.378;2023-08-30T01:47:14;8.88;;;6.55;;
44228;SDS011;29904;51.058;5.378;2023-08-30T01:49:43;9.30;;;6.70;;
44228;SDS011;29904;51.058;5.378;2023-08-30T01:52:10;8.75;;;6.75;;
44228;SDS011;29904;51.058;5.378;2023-08-30T01:54:36;8.70;;;6.45;;
44228;SDS011;29904;51.058;5.378;2023-08-30T01:57:04;9.80;;;6.90;;
44228;SDS011;29904;51.058;5.378;2023-08-30T01:59:30;9.73;;;6.70;;
44228;SDS011;29904;51.058;5.378;2023-08-30T02:01:56;7.82;;;5.95;;
44228;SDS011;29904;51.058;5.378;2023-08-30T02:04:22;8.70;;;6.50;;
44228;SDS011;29904;51.058;5.378;2023-08-30T02:06:55;8.80;;;7.03;;
44228;SDS011;29904;51.058;5.378;2023-08-30T02:10:11;9.43;;;7.32;;
44228;SDS011;29904;51.058;5.378;2023-08-30T02:12:13;9.82;;;7.15;;
44228;SDS011;29904;51.058;5.378;2023-08-30T02:14:41;8.68;;;6.85;;
44228;SDS011;29904;51.058;5.378;2023-08-30T02:17:12;8.95;;;6.88;;
44228;SDS011;29904;51.058;5.378;2023-08-30T02:19:39;9.18;;;6.60;;
44228;SDS011;29904;51.058;5.378;2023-08-30T02:22:05;8.20;;;6.53;;
44228;SDS011;29904;51.058;5.378;2023-08-30T02:24:30;9.43;;;7.13;;
44228;SDS011;29904;51.058;5.378;2023-08-30T02:26:56;11.18;;;6.97;;
44228;SDS011;29904;51.058;5.378;2023-08-30T02:29:25;9.57;;;7.05;;
44228;SDS011;29904;51.058;5.378;2023-08-30T02:31:51;10.07;;;7.25;;
44228;SDS011;29904;51.058;5.378;2023-08-30T02:34:17;8.43;;;6.83;;
44228;SDS011;29904;51.058;5.378;2023-08-30T02:36:44;10.20;;;7.15;;
44228;SDS011;29904;51.058;5.378;2023-08-30T02:39:13;9.68;;;7.13;;
44228;SDS011;29904;51.058;5.378;2023-08-30T02:41:39;10.02;;;7.20;;
44228;SDS011;29904;51.058;5.378;2023-08-30T02:44:13;10.20;;;6.80;;
44228;SDS011;29904;51.058;5.378;2023-08-30T02:46:38;9.77;;;7.03;;
44228;SDS011;29904;51.058;5.378;2023-08-30T02:49:04;9.57;;;7.20;;
44228;SDS011;29904;51.058;5.378;2023-08-30T02:51:31;11.13;;;7.33;;
44228;SDS011;29904;51.058;5.378;2023-08-30T02:53:56;8.67;;;6.30;;
44228;SDS011;29904;51.058;5.378;2023-08-30T02:56:22;9.57;;;7.17;;
44228;SDS011;29904;51.058;5.378;2023-08-30T02:58:50;8.98;;;7.13;;
44228;SDS011;29904;51.058;5.378;2023-08-30T03:01:16;7.38;;;6.18;;
44228;SDS011;29904;51.058;5.378;2023-08-30T03:03:42;8.52;;;6.43;;
44228;SDS011;29904;51.058;5.378;2023-08-30T03:06:08;9.27;;;5.97;;
44228;SDS011;29904;51.058;5.378;2023-08-30T03:08:33;8.75;;;6.40;;
44228;SDS011;29904;51.058;5.378;2023-08-30T03:11:09;10.23;;;6.97;;
44228;SDS011;29904;51.058;5.378;2023-08-30T03:13:37;8.10;;;6.45;;
44228;SDS011;29904;51.058;5.378;2023-08-30T03:16:12;8.80;;;6.27;;
44228;SDS011;29904;51.058;5.378;2023-08-30T03:18:41;7.53;;;6.10;;
44228;SDS011;29904;51.058;5.378;2023-08-30T03:21:08;8.95;;;6.60;;
44228;SDS011;29904;51.058;5.378;2023-08-30T03:23:34;10.55;;;7.20;;
44228;SDS011;29904;51.058;5.378;2023-08-30T03:28:36;10.30;;;7.40;;
44228;SDS011;29904;51.058;5.378;2023-08-30T03:31:02;9.02;;;6.82;;
44228;SDS011;29904;51.058;5.378;2023-08-30T03:33:36;10.02;;;7.07;;
44228;SDS011;29904;51.058;5.378;2023-08-30T03:36:01;9.40;;;6.80;;
44228;SDS011;29904;51.058;5.378;2023-08-30T03:38:27;10.52;;;7.28;;
44228;SDS011;29904;51.058;5.378;2023-08-30T03:40:55;11.18;;;7.05;;
44228;SDS011;29904;51.058;5.378;2023-08-30T03:43:23;8.27;;;6.65;;
44228;SDS011;29904;51.058;5.378;2023-08-30T03:45:48;9.70;;;7.15;;
44228;SDS011;29904;51.058;5.378;2023-08-30T03:48:14;8.10;;;6.45;;
44228;SDS011;29904;51.058;5.378;2023-08-30T03:50:42;9.23;;;6.67;;
44228;SDS011;29904;51.058;5.378;2023-08-30T03:53:07;9.03;;;6.67;;
44228;SDS011;29904;51.058;5.378;2023-08-30T03:55:33;8.48;;;7.30;;
44228;SDS011;29904;51.058;5.378;2023-08-30T03:57:59;10.13;;;6.80;;
44228;SDS011;29904;51.058;5.378;2023-08-30T04:00:25;9.40;;;6.97;;
44228;SDS011;29904;51.058;5.378;2023-08-30T04:02:50;9.27;;;6.70;;
44228;SDS011;29904;51.058;5.378;2023-08-30T04:05:16;10.80;;;7.53;;
44228;SDS011;29904;51.058;5.378;2023-08-30T04:07:42;10.45;;;7.47;;
44228;SDS011;29904;51.058;5.378;2023-08-30T04:10:08;8.55;;;6.90;;
44228;SDS011;29904;51.058;5.378;2023-08-30T04:12:34;8.88;;;6.72;;
44228;SDS011;29904;51.058;5.378;2023-08-30T04:15:01;9.27;;;7.43;;
44228;SDS011;29904;51.058;5.378;2023-08-30T04:17:28;8.75;;;6.85;;
44228;SDS011;29904;51.058;5.378;2023-08-30T04:19:54;9.93;;;7.50;;
44228;SDS011;29904;51.058;5.378;2023-08-30T04:22:20;9.80;;;6.93;;
44228;SDS011;29904;51.058;5.378;2023-08-30T04:24:46;10.13;;;8.07;;
44228;SDS011;29904;51.058;5.378;2023-08-30T04:27:12;10.57;;;7.25;;
44228;SDS011;29904;51.058;5.378;2023-08-30T04:29:38;9.77;;;7.63;;
44228;SDS011;29904;51.058;5.378;2023-08-30T04:32:04;13.13;;;8.38;;
44228;SDS011;29904;51.058;5.378;2023-08-30T04:34:32;10.65;;;8.05;;
44228;SDS011;29904;51.058;5.378;2023-08-30T04:36:57;11.98;;;8.60;;
44228;SDS011;29904;51.058;5.378;2023-08-30T04:39:23;11.75;;;8.95;;
44228;SDS011;29904;51.058;5.378;2023-08-30T04:41:49;12.80;;;8.60;;
44228;SDS011;29904;51.058;5.378;2023-08-30T04:44:15;11.20;;;8.67;;
44228;SDS011;29904;51.058;5.378;2023-08-30T04:46:42;12.38;;;9.10;;
44228;SDS011;29904;51.058;5.378;2023-08-30T04:49:10;13.55;;;9.65;;
44228;SDS011;29904;51.058;5.378;2023-08-30T04:51:35;12.27;;;9.23;;
44228;SDS011;29904;51.058;5.378;2023-08-30T04:54:01;12.23;;;9.40;;
44228;SDS011;29904;51.058;5.378;2023-08-30T04:56:27;11.63;;;9.43;;
44228;SDS011;29904;51.058;5.378;2023-08-30T04:58:53;13.55;;;10.05;;
44228;SDS011;29904;51.058;5.378;2023-08-30T05:01:19;12.00;;;9.43;;
44228;SDS011;29904;51.058;5.378;2023-08-30T05:03:44;10.80;;;8.63;;
44228;SDS011;29904;51.058;5.378;2023-08-30T05:06:10;11.37;;;8.47;;
44228;SDS011;29904;51.058;5.378;2023-08-30T05:08:39;11.80;;;8.88;;
44228;SDS011;29904;51.058;5.378;2023-08-30T05:11:04;11.87;;;8.80;;
44228;SDS011;29904;51.058;5.378;2023-08-30T05:13:32;11.95;;;8.90;;
44228;SDS011;29904;51.058;5.378;2023-08-30T05:15:58;12.02;;;9.07;;
44228;SDS011;29904;51.058;5.378;2023-08-30T05:18:23;14.55;;;9.60;;
44228;SDS011;29904;51.058;5.378;2023-08-30T05:20:49;11.93;;;9.47;;
44228;SDS011;29904;51.058;5.378;2023-08-30T05:23:15;13.77;;;9.57;;
44228;SDS011;29904;51.058;5.378;2023-08-30T05:25:41;13.10;;;9.00;;
44228;SDS011;29904;51.058;5.378;2023-08-30T05:28:06;13.07;;;9.57;;
44228;SDS011;29904;51.058;5.378;2023-08-30T05:30:32;13.85;;;10.20;;
44228;SDS011;29904;51.058;5.378;2023-08-30T05:32:58;14.77;;;10.07;;
44228;SDS011;29904;51.058;5.378;2023-08-30T05:35:23;12.75;;;9.75;;
44228;SDS011;29904;51.058;5.378;2023-08-30T05:37:49;15.02;;;9.80;;
44228;SDS011;29904;51.058;5.378;2023-08-30T05:40:15;14.18;;;10.05;;
44228;SDS011;29904;51.058;5.378;2023-08-30T05:42:42;13.63;;;10.27;;
44228;SDS011;29904;51.058;5.378;2023-08-30T05:45:09;12.35;;;9.60;;
44228;SDS011;29904;51.058;5.378;2023-08-30T05:47:35;15.90;;;10.75;;
44228;SDS011;29904;51.058;5.378;2023-08-30T05:50:01;14.02;;;9.38;;
44228;SDS011;29904;51.058;5.378;2023-08-30T05:52:27;13.25;;;9.63;;
44228;SDS011;29904;51.058;5.378;2023-08-30T05:54:53;12.85;;;9.27;;
44228;SDS011;29904;51.058;5.378;2023-08-30T05:57:18;12.83;;;9.87;;
44228;SDS011;29904;51.058;5.378;2023-08-30T05:59:47;12.15;;;8.88;;
44228;SDS011;29904;51.058;5.378;2023-08-30T06:02:12;12.32;;;9.65;;
44228;SDS011;29904;51.058;5.378;2023-08-30T06:04:38;11.10;;;9.17;;
44228;SDS011;29904;51.058;5.378;2023-08-30T06:07:04;13.77;;;9.52;;
44228;SDS011;29904;51.058;5.378;2023-08-30T06:09:29;12.65;;;9.18;;
44228;SDS011;29904;51.058;5.378;2023-08-30T06:11:55;14.68;;;9.88;;
44228;SDS011;29904;51.058;5.378;2023-08-30T06:14:21;12.50;;;9.50;;
44228;SDS011;29904;51.058;5.378;2023-08-30T06:16:47;12.70;;;8.67;;
44228;SDS011;29904;51.058;5.378;2023-08-30T06:19:15;10.65;;;8.00;;
44228;SDS011;29904;51.058;5.378;2023-08-30T06:21:40;10.88;;;8.05;;
44228;SDS011;29904;51.058;5.378;2023-08-30T06:24:06;9.37;;;7.43;;
44228;SDS011;29904;51.058;5.378;2023-08-30T06:26:32;9.70;;;6.63;;
44228;SDS011;29904;51.058;5.378;2023-08-30T06:28:58;8.68;;;6.25;;
44228;SDS011;29904;51.058;5.378;2023-08-30T06:31:23;8.15;;;5.72;;
44228;SDS011;29904;51.058;5.378;2023-08-30T06:33:49;7.80;;;5.00;;
44228;SDS011;29904;51.058;5.378;2023-08-30T06:36:15;6.82;;;4.90;;
44228;SDS011;29904;51.058;5.378;2023-08-30T06:38:42;8.23;;;5.00;;
44228;SDS011;29904;51.058;5.378;2023-08-30T06:41:10;7.60;;;4.88;;
44228;SDS011;29904;51.058;5.378;2023-08-30T06:43:38;6.15;;;4.45;;
44228;SDS011;29904;51.058;5.378;2023-08-30T06:46:04;5.05;;;4.07;;
44228;SDS011;29904;51.058;5.378;2023-08-30T06:48:29;6.07;;;4.20;;
44228;SDS011;29904;51.058;5.378;2023-08-30T06:50:58;5.13;;;3.67;;
44228;SDS011;29904;51.058;5.378;2023-08-30T06:53:27;5.30;;;3.90;;
44228;SDS011;29904;51.058;5.378;2023-08-30T06:55:59;5.55;;;3.60;;
44228;SDS011;29904;51.058;5.378;2023-08-30T06:58:25;5.32;;;3.45;;
44228;SDS011;29904;51.058;5.378;2023-08-30T07:00:52;5.65;;;3.30;;
44228;SDS011;29904;51.058;5.378;2023-08-30T07:03:18;3.38;;;2.60;;
44228;SDS011;29904;51.058;5.378;2023-08-30T07:05:44;4.78;;;2.88;;
44228;SDS011;29904;51.058;5.378;2023-08-30T07:08:12;5.85;;;2.90;;
44228;SDS011;29904;51.058;5.378;2023-08-30T07:10:39;4.55;;;2.80;;
44228;SDS011;29904;51.058;5.378;2023-08-30T07:13:07;4.72;;;2.45;;
44228;SDS011;29904;51.058;5.378;2023-08-30T07:15:36;4.00;;;2.50;;
44228;SDS011;29904;51.058;5.378;2023-08-30T07:18:04;3.85;;;2.53;;
44228;SDS011;29904;51.058;5.378;2023-08-30T07:20:32;3.60;;;2.30;;
44228;SDS011;29904;51.058;5.378;2023-08-30T07:22:58;4.30;;;2.33;;
44228;SDS011;29904;51.058;5.378;2023-08-30T07:25:24;4.07;;;2.28;;
44228;SDS011;29904;51.058;5.378;2023-08-30T07:27:52;4.38;;;2.03;;
44228;SDS011;29904;51.058;5.378;2023-08-30T07:30:18;3.90;;;2.35;;
44228;SDS011;29904;51.058;5.378;2023-08-30T07:32:43;4.95;;;1.90;;
44228;SDS011;29904;51.058;5.378;2023-08-30T07:35:09;4.20;;;2.13;;
44228;SDS011;29904;51.058;5.378;2023-08-30T07:37:35;3.97;;;2.10;;
44228;SDS011;29904;51.058;5.378;2023-08-30T07:40:01;3.53;;;2.20;;
44228;SDS011;29904;51.058;5.378;2023-08-30T07:42:29;3.63;;;2.08;;
44228;SDS011;29904;51.058;5.378;2023-08-30T07:44:57;2.88;;;2.00;;
44228;SDS011;29904;51.058;5.378;2023-08-30T07:47:29;4.10;;;2.20;;
44228;SDS011;29904;51.058;5.378;2023-08-30T07:49:56;3.28;;;2.20;;
44228;SDS011;29904;51.058;5.378;2023-08-30T07:52:22;2.70;;;1.80;;
44228;SDS011;29904;51.058;5.378;2023-08-30T07:54:48;4.63;;;2.20;;
44228;SDS011;29904;51.058;5.378;2023-08-30T07:57:15;2.33;;;1.90;;
44228;SDS011;29904;51.058;5.378;2023-08-30T07:59:41;3.38;;;1.98;;
44228;SDS011;29904;51.058;5.378;2023-08-30T08:02:08;3.63;;;2.00;;
44228;SDS011;29904;51.058;5.378;2023-08-30T08:04:34;3.17;;;2.10;;
44228;SDS011;29904;51.058;5.378;2023-08-30T08:07:00;2.80;;;2.15;;
44228;SDS011;29904;51.058;5.378;2023-08-30T08:09:26;4.03;;;2.30;;
44228;SDS011;29904;51.058;5.378;2023-08-30T08:11:52;4.35;;;2.40;;
44228;SDS011;29904;51.058;5.378;2023-08-30T08:14:18;3.42;;;2.30;;
44228;SDS011;29904;51.058;5.378;2023-08-30T08:16:44;4.70;;;2.60;;
44228;SDS011;29904;51.058;5.378;2023-08-30T08:19:10;4.05;;;2.42;;
44228;SDS011;29904;51.058;5.378;2023-08-30T08:21:37;3.97;;;2.50;;
44228;SDS011;29904;51.058;5.378;2023-08-30T08:24:03;4.83;;;2.70;;
44228;SDS011;29904;51.058;5.378;2023-08-30T08:26:31;4.15;;;2.70;;
44228;SDS011;29904;51.058;5.378;2023-08-30T08:28:59;3.50;;;2.50;;
44228;SDS011;29904;51.058;5.378;2023-08-30T08:31:25;5.40;;;2.85;;
44228;SDS011;29904;51.058;5.378;2023-08-30T08:33:51;5.05;;;2.70;;
44228;SDS011;29904;51.058;5.378;2023-08-30T08:36:29;4.65;;;2.80;;
44228;SDS011;29904;51.058;5.378;2023-08-30T08:38:55;5.47;;;3.08;;
44228;SDS011;29904;51.058;5.378;2023-08-30T08:41:21;4.90;;;3.07;;
44228;SDS011;29904;51.058;5.378;2023-08-30T08:43:56;5.07;;;3.22;;
44228;SDS011;29904;51.058;5.378;2023-08-30T08:46:23;7.03;;;3.80;;
44228;SDS011;29904;51.058;5.378;2023-08-30T08:48:50;5.38;;;3.20;;
44228;SDS011;29904;51.058;5.378;2023-08-30T08:51:17;5.65;;;3.78;;
44228;SDS011;29904;51.058;5.378;2023-08-30T08:53:45;5.05;;;3.55;;
44228;SDS011;29904;51.058;5.378;2023-08-30T08:56:12;5.13;;;3.63;;
44228;SDS011;29904;51.058;5.378;2023-08-30T08:58:38;6.05;;;3.70;;
44228;SDS011;29904;51.058;5.378;2023-08-30T09:01:04;5.50;;;3.45;;
44228;SDS011;29904;51.058;5.378;2023-08-30T09:03:32;4.85;;;3.38;;
44228;SDS011;29904;51.058;5.378;2023-08-30T09:06:00;5.50;;;3.45;;
44228;SDS011;29904;51.058;5.378;2023-08-30T09:08:28;5.15;;;3.35;;
44228;SDS011;29904;51.058;5.378;2023-08-30T09:10:54;4.33;;;3.40;;
44228;SDS011;29904;51.058;5.378;2023-08-30T09:13:19;4.75;;;3.15;;
44228;SDS011;29904;51.058;5.378;2023-08-30T09:15:47;5.10;;;3.38;;
44228;SDS011;29904;51.058;5.378;2023-08-30T09:18:56;5.43;;;3.63;;
44228;SDS011;29904;51.058;5.378;2023-08-30T09:21:32;5.65;;;3.25;;
44228;SDS011;29904;51.058;5.378;2023-08-30T09:23:59;5.95;;;3.78;;
44228;SDS011;29904;51.058;5.378;2023-08-30T09:26:26;6.20;;;3.47;;
44228;SDS011;29904;51.058;5.378;2023-08-30T09:29:00;4.40;;;3.10;;
44228;SDS011;29904;51.058;5.378;2023-08-30T09:31:35;4.57;;;3.17;;
44228;SDS011;29904;51.058;5.378;2023-08-30T09:34:02;4.10;;;2.70;;
44228;SDS011;29904;51.058;5.378;2023-08-30T09:36:38;5.03;;;2.90;;
44228;SDS011;29904;51.058;5.378;2023-08-30T09:39:10;3.03;;;2.45;;
44228;SDS011;29904;51.058;5.378;2023-08-30T09:41:46;4.18;;;2.63;;
44228;SDS011;29904;51.058;5.378;2023-08-30T09:44:13;3.13;;;2.25;;
44228;SDS011;29904;51.058;5.378;2023-08-30T09:46:50;3.08;;;2.40;;
44228;SDS011;29904;51.058;5.378;2023-08-30T09:49:23;4.10;;;2.33;;
44228;SDS011;29904;51.058;5.378;2023-08-30T09:51:50;3.05;;;2.10;;
44228;SDS011;29904;51.058;5.378;2023-08-30T09:54:19;5.20;;;2.40;;
44228;SDS011;29904;51.058;5.378;2023-08-30T09:56:46;4.28;;;2.08;;
44228;SDS011;29904;51.058;5.378;2023-08-30T09:59:13;2.90;;;1.90;;
44228;SDS011;29904;51.058;5.378;2023-08-30T10:01:41;2.83;;;1.88;;
44228;SDS011;29904;51.058;5.378;2023-08-30T10:04:08;2.97;;;1.90;;
44228;SDS011;29904;51.058;5.378;2023-08-30T10:06:35;3.20;;;2.00;;
44228;SDS011;29904;51.058;5.378;2023-08-30T10:09:02;3.03;;;2.20;;
44228;SDS011;29904;51.058;5.378;2023-08-30T10:11:29;2.92;;;2.08;;
44228;SDS011;29904;51.058;5.378;2023-08-30T10:14:03;4.25;;;2.17;;
44228;SDS011;29904;51.058;5.378;2023-08-30T10:16:43;3.10;;;2.10;;
44228;SDS011;29904;51.058;5.378;2023-08-30T10:19:13;2.72;;;2.03;;
44228;SDS011;29904;51.058;5.378;2023-08-30T10:21:40;4.10;;;2.20;;
44228;SDS011;29904;51.058;5.378;2023-08-30T10:24:09;3.65;;;2.13;;
44228;SDS011;29904;51.058;5.378;2023-08-30T10:26:37;2.65;;;1.85;;
44228;SDS011;29904;51.058;5.378;2023-08-30T10:29:04;2.30;;;1.75;;
44228;SDS011;29904;51.058;5.378;2023-08-30T10:31:32;2.70;;;2.00;;
44228;SDS011;29904;51.058;5.378;2023-08-30T10:33:57;3.22;;;2.22;;
44228;SDS011;29904;51.058;5.378;2023-08-30T10:36:25;3.50;;;2.22;;
44228;SDS011;29904;51.058;5.378;2023-08-30T10:38:55;3.28;;;1.80;;
44228;SDS011;29904;51.058;5.378;2023-08-30T10:43:54;3.05;;;2.13;;
44228;SDS011;29904;51.058;5.378;2023-08-30T10:46:30;3.42;;;2.00;;
44228;SDS011;29904;51.058;5.378;2023-08-30T10:48:56;3.05;;;1.98;;
44228;SDS011;29904;51.058;5.378;2023-08-30T10:51:39;2.70;;;1.92;;
44228;SDS011;29904;51.058;5.378;2023-08-30T10:54:14;3.42;;;2.22;;
44228;SDS011;29904;51.058;5.378;2023-08-30T10:59:18;4.00;;;2.10;;
44228;SDS011;29904;51.058;5.378;2023-08-30T11:01:46;3.33;;;2.22;;
44228;SDS011;29904;51.058;5.378;2023-08-30T11:04:12;2.60;;;2.00;;
44228;SDS011;29904;51.058;5.378;2023-08-30T11:06:41;2.97;;;2.07;;
44228;SDS011;29904;51.058;5.378;2023-08-30T11:09:12;2.78;;;2.25;;
44228;SDS011;29904;51.058;5.378;2023-08-30T11:11:39;3.87;;;2.20;;
44228;SDS011;29904;51.058;5.378;2023-08-30T11:14:07;3.00;;;2.20;;
44228;SDS011;29904;51.058;5.378;2023-08-30T11:16:34;2.75;;;2.20;;
44228;SDS011;29904;51.058;5.378;2023-08-30T11:19:00;4.20;;;2.30;;
44228;SDS011;29904;51.058;5.378;2023-08-30T11:21:32;3.55;;;2.22;;
44228;SDS011;29904;51.058;5.378;2023-08-30T11:23:59;3.08;;;2.42;;
44228;SDS011;29904;51.058;5.378;2023-08-30T11:26:25;2.75;;;2.00;;
44228;SDS011;29904;51.058;5.378;2023-08-30T11:28:51;3.78;;;2.60;;
44228;SDS011;29904;51.058;5.378;2023-08-30T11:31:24;3.28;;;2.30;;
44228;SDS011;29904;51.058;5.378;2023-08-30T11:33:53;4.40;;;2.40;;
44228;SDS011;29904;51.058;5.378;2023-08-30T11:36:23;3.13;;;2.45;;
44228;SDS011;29904;51.058;5.378;2023-08-30T11:38:53;3.27;;;2.40;;
44228;SDS011;29904;51.058;5.378;2023-08-30T11:41:20;3.22;;;2.30;;
44228;SDS011;29904;51.058;5.378;2023-08-30T11:43:50;3.85;;;2.50;;
44228;SDS011;29904;51.058;5.378;2023-08-30T11:46:18;2.90;;;2.22;;
44228;SDS011;29904;51.058;5.378;2023-08-30T11:48:44;3.97;;;2.78;;
44228;SDS011;29904;51.058;5.378;2023-08-30T11:51:15;3.20;;;2.53;;
44228;SDS011;29904;51.058;5.378;2023-08-30T11:53:43;3.30;;;2.60;;
44228;SDS011;29904;51.058;5.378;2023-08-30T11:56:10;3.38;;;2.50;;
44228;SDS011;29904;51.058;5.378;2023-08-30T11:58:38;3.90;;;2.72;;
44228;SDS011;29904;51.058;5.378;2023-08-30T12:01:04;3.73;;;2.80;;
44228;SDS011;29904;51.058;5.378;2023-08-30T12:03:31;4.30;;;2.90;;
44228;SDS011;29904;51.058;5.378;2023-08-30T12:05:57;3.23;;;2.50;;
44228;SDS011;29904;51.058;5.378;2023-08-30T12:08:27;3.65;;;2.90;;
44228;SDS011;29904;51.058;5.378;2023-08-30T12:10:55;3.40;;;2.63;;
44228;SDS011;29904;51.058;5.378;2023-08-30T12:15:52;4.40;;;2.53;;
44228;SDS011;29904;51.058;5.378;2023-08-30T12:18:26;2.88;;;2.58;;
44228;SDS011;29904;51.058;5.378;2023-08-30T12:23:22;3.90;;;2.72;;
44228;SDS011;29904;51.058;5.378;2023-08-30T12:26:05;3.28;;;2.60;;
44228;SDS011;29904;51.058;5.378;2023-08-30T12:28:37;3.97;;;2.90;;
44228;SDS011;29904;51.058;5.378;2023-08-30T12:31:09;3.90;;;2.90;;
44228;SDS011;29904;51.058;5.378;2023-08-30T12:33:35;4.63;;;3.15;;
44228;SDS011;29904;51.058;5.378;2023-08-30T12:36:02;4.60;;;3.10;;
44228;SDS011;29904;51.058;5.378;2023-08-30T12:38:30;5.03;;;3.03;;
44228;SDS011;29904;51.058;5.378;2023-08-30T12:40:56;3.90;;;2.90;;
44228;SDS011;29904;51.058;5.378;2023-08-30T12:43:22;4.18;;;2.60;;
44228;SDS011;29904;51.058;5.378;2023-08-30T12:45:49;3.53;;;2.92;;
44228;SDS011;29904;51.058;5.378;2023-08-30T12:48:16;4.75;;;3.20;;
44228;SDS011;29904;51.058;5.378;2023-08-30T12:50:43;5.20;;;3.28;;
44228;SDS011;29904;51.058;5.378;2023-08-30T12:53:12;5.47;;;4.22;;
44228;SDS011;29904;51.058;5.378;2023-08-30T12:55:38;5.43;;;3.70;;
44228;SDS011;29904;51.058;5.378;2023-08-30T12:58:07;5.80;;;3.88;;
44228;SDS011;29904;51.058;5.378;2023-08-30T13:00:35;4.50;;;3.30;;
44228;SDS011;29904;51.058;5.378;2023-08-30T13:03:01;3.63;;;3.17;;
44228;SDS011;29904;51.058;5.378;2023-08-30T13:05:28;5.25;;;3.38;;
44228;SDS011;29904;51.058;5.378;2023-08-30T13:07:58;6.28;;;3.90;;
44228;SDS011;29904;51.058;5.378;2023-08-30T13:10:24;5.35;;;3.47;;
44228;SDS011;29904;51.058;5.378;2023-08-30T13:12:50;5.60;;;3.80;;
44228;SDS011;29904;51.058;5.378;2023-08-30T13:15:16;6.53;;;3.27;;
44228;SDS011;29904;51.058;5.378;2023-08-30T13:17:42;4.57;;;3.30;;
44228;SDS011;29904;51.058;5.378;2023-08-30T13:20:08;5.27;;;3.40;;
44228;SDS011;29904;51.058;5.378;2023-08-30T13:22:34;4.93;;;3.20;;
44228;SDS011;29904;51.058;5.378;2023-08-30T13:25:02;5.18;;;3.38;;
44228;SDS011;29904;51.058;5.378;2023-08-30T13:27:29;5.63;;;3.10;;
44228;SDS011;29904;51.058;5.378;2023-08-30T13:29:55;4.53;;;3.13;;
44228;SDS011;29904;51.058;5.378;2023-08-30T13:32:23;5.25;;;3.03;;
44228;SDS011;29904;51.058;5.378;2023-08-30T13:34:49;4.53;;;2.88;;
44228;SDS011;29904;51.058;5.378;2023-08-30T13:37:16;3.83;;;2.20;;
44228;SDS011;29904;51.058;5.378;2023-08-30T13:39:41;3.80;;;2.10;;
44228;SDS011;29904;51.058;5.378;2023-08-30T13:42:09;7.15;;;2.40;;
44228;SDS011;29904;51.058;5.378;2023-08-30T13:44:35;4.65;;;2.10;;
44228;SDS011;29904;51.058;5.378;2023-08-30T13:47:03;4.38;;;1.60;;
44228;SDS011;29904;51.058;5.378;2023-08-30T13:49:30;4.13;;;1.50;;
44228;SDS011;29904;51.058;5.378;2023-08-30T13:51:56;4.00;;;1.38;;
44228;SDS011;29904;51.058;5.378;2023-08-30T13:54:24;4.15;;;1.30;;
44228;SDS011;29904;51.058;5.378;2023-08-30T13:56:54;3.35;;;1.42;;
44228;SDS011;29904;51.058;5.378;2023-08-30T13:59:22;3.70;;;1.45;;
44228;SDS011;29904;51.058;5.378;2023-08-30T14:01:47;3.87;;;1.30;;
44228;SDS011;29904;51.058;5.378;2023-08-30T14:04:15;4.72;;;1.20;;
44228;SDS011;29904;51.058;5.378;2023-08-30T14:06:41;4.10;;;1.27;;
44228;SDS011;29904;51.058;5.378;2023-08-30T14:09:06;3.80;;;1.10;;
44228;SDS011;29904;51.058;5.378;2023-08-30T14:11:33;2.78;;;0.82;;
44228;SDS011;29904;51.058;5.378;2023-08-30T14:14:02;5.85;;;1.10;;
44228;SDS011;29904;51.058;5.378;2023-08-30T14:16:28;4.35;;;1.30;;
44228;SDS011;29904;51.058;5.378;2023-08-30T14:18:56;4.30;;;1.17;;
44228;SDS011;29904;51.058;5.378;2023-08-30T14:21:25;5.15;;;1.20;;
44228;SDS011;29904;51.058;5.378;2023-08-30T14:23:52;4.25;;;1.00;;
44228;SDS011;29904;51.058;5.378;2023-08-30T14:26:18;3.95;;;1.00;;
44228;SDS011;29904;51.058;5.378;2023-08-30T14:28:46;4.78;;;1.10;;
44228;SDS011;29904;51.058;5.378;2023-08-30T14:31:11;5.03;;;1.07;;
44228;SDS011;29904;51.058;5.378;2023-08-30T14:33:42;4.53;;;1.02;;
44228;SDS011;29904;51.058;5.378;2023-08-30T14:36:11;4.20;;;1.17;;
44228;SDS011;29904;51.058;5.378;2023-08-30T14:38:37;4.68;;;1.10;;
44228;SDS011;29904;51.058;5.378;2023-08-30T14:41:03;4.60;;;1.00;;
44228;SDS011;29904;51.058;5.378;2023-08-30T14:43:29;4.78;;;1.30;;
44228;SDS011;29904;51.058;5.378;2023-08-30T14:46:02;3.30;;;1.00;;
44228;SDS011;29904;51.058;5.378;2023-08-30T14:48:28;4.10;;;1.20;;
44228;SDS011;29904;51.058;5.378;2023-08-30T14:50:56;4.90;;;1.13;;
44228;SDS011;29904;51.058;5.378;2023-08-30T14:53:23;4.43;;;1.15;;
44228;SDS011;29904;51.058;5.378;2023-08-30T14:55:51;6.53;;;1.13;;
44228;SDS011;29904;51.058;5.378;2023-08-30T14:58:17;4.03;;;0.93;;
44228;SDS011;29904;51.058;5.378;2023-08-30T15:00:47;3.72;;;0.93;;
44228;SDS011;29904;51.058;5.378;2023-08-30T15:03:13;4.32;;;1.00;;
44228;SDS011;29904;51.058;5.378;2023-08-30T15:05:38;5.13;;;1.10;;